createdAt,value
2022-11-05T00:03:19.310Z,100630.34
2022-11-05T00:08:21.383Z,100635.66
2022-11-05T00:13:24.479Z,100649.88
2022-11-05T00:18:26.784Z,100653.41
2022-11-05T00:23:28.481Z,100656.91
2022-11-05T00:28:32.603Z,100653.31
2022-11-05T00:33:34.690Z,100665.72
2022-11-05T00:38:36.631Z,100672.88
2022-11-05T00:43:40.208Z,100671.16
2022-11-05T00:48:41.874Z,100670.28
2022-11-05T00:53:43.951Z,100677.34
2022-11-05T00:58:46.983Z,100688.78
2022-11-05T01:03:51.929Z,100691.41
2022-11-05T01:08:56.271Z,100698.56
2022-11-05T01:14:00.202Z,100703.97
2022-11-05T01:19:03.617Z,100688.19
2022-11-05T01:24:06.779Z,100709.38
2022-11-05T01:29:11.096Z,100713.84
2022-11-05T01:34:12.798Z,100712.09
2022-11-05T01:39:14.465Z,100714.81
2022-11-05T01:44:56.281Z,100721.91
2022-11-05T01:50:00.882Z,100740.38
2022-11-05T01:55:04.243Z,100741.25
2022-11-05T02:00:09.202Z,100745.69
2022-11-05T02:05:13.633Z,100747.47
2022-11-05T02:10:17.078Z,100751.00
2022-11-05T02:15:30.066Z,100765.97
2022-11-05T02:20:42.060Z,100766.81
2022-11-05T02:26:08.147Z,100764.22
2022-11-05T02:31:19.167Z,100766.88
2022-11-05T02:36:32.181Z,100776.56
2022-11-05T02:41:40.302Z,100780.09
2022-11-05T02:46:54.090Z,100785.38
2022-11-05T02:51:58.584Z,100788.88
2022-11-05T02:57:02.321Z,100793.28
2022-11-05T03:02:06.716Z,100793.31
2022-11-05T03:07:29.926Z,100796.84
2022-11-05T03:12:43.386Z,100806.53
2022-11-05T03:17:56.089Z,100808.31
2022-11-05T03:23:07.446Z,100814.50
2022-11-05T03:28:12.113Z,100822.44
2022-11-05T03:33:20.906Z,100831.22
2022-11-05T03:38:26.821Z,100833.00
2022-11-05T03:43:34.901Z,100837.41
2022-11-05T03:48:41.809Z,100852.38
2022-11-05T03:53:48.928Z,100851.50
2022-11-05T03:58:57.552Z,100857.69
2022-11-05T04:04:02.316Z,100865.56
2022-11-05T04:09:04.363Z,100871.75
2022-11-05T04:14:06.390Z,100881.44
2022-11-05T04:19:09.442Z,100881.44
2022-11-05T04:24:11.634Z,100894.66
2022-11-05T04:29:13.319Z,100894.63
2022-11-05T04:34:16.373Z,100899.91
2022-11-05T04:39:18.257Z,100898.09
2022-11-05T04:44:20.455Z,100901.63
2022-11-05T04:49:23.701Z,100902.47
2022-11-05T04:54:25.865Z,100914.75
2022-11-05T04:59:27.946Z,100913.00
2022-11-05T05:04:30.977Z,100904.16
2022-11-05T05:09:33.018Z,100903.25
2022-11-05T05:14:35.074Z,100905.84
2022-11-05T05:19:38.748Z,100901.47
2022-11-05T05:24:40.937Z,100911.13
2022-11-05T05:29:42.980Z,100921.72
2022-11-05T05:34:46.328Z,100936.66
2022-11-05T05:39:49.158Z,100948.09
2022-11-05T05:44:51.361Z,100948.97
2022-11-05T05:49:54.890Z,100954.19
2022-11-05T05:54:56.877Z,100959.50
2022-11-05T05:59:58.866Z,100967.31
2022-11-05T06:05:02.053Z,100983.09
2022-11-05T06:10:06.403Z,100983.94
2022-11-05T06:15:09.349Z,100999.72
2022-11-05T06:20:13.124Z,101014.63
2022-11-05T06:25:15.594Z,101010.22
2022-11-05T06:30:17.715Z,101021.72
2022-11-05T06:35:21.005Z,101021.72
2022-11-05T06:40:23.309Z,101043.66
2022-11-05T06:45:25.172Z,101047.34
2022-11-05T06:50:28.753Z,101055.50
2022-11-05T06:55:31.812Z,101044.91
2022-11-05T07:00:35.195Z,101060.88
2022-11-05T07:05:41.550Z,101060.88
2022-11-05T07:10:43.786Z,101077.66
2022-11-05T07:15:45.764Z,101083.84
2022-11-05T07:20:49.382Z,101100.63
2022-11-05T07:25:51.643Z,101101.53
2022-11-05T07:30:53.430Z,101108.63
2022-11-05T07:35:57.859Z,101102.47
2022-11-05T07:40:59.941Z,101116.59
2022-11-05T07:46:02.256Z,101120.97
2022-11-05T07:51:05.998Z,101114.78
2022-11-05T07:56:08.175Z,101106.81
2022-11-05T08:01:10.156Z,101120.94
2022-11-05T09:33:40.465Z,101216.31
2022-11-05T09:38:42.766Z,101222.06
2022-11-05T09:43:48.117Z,101224.59
2022-11-05T09:48:54.813Z,101220.97
2022-11-05T09:53:58.171Z,101236.34
2022-11-05T09:59:03.403Z,101232.13
2022-11-05T10:04:09.791Z,101227.84
2022-11-05T10:14:03.055Z,101231.53
2022-11-05T10:19:07.882Z,101235.56
2022-11-05T10:24:14.893Z,101235.19
2022-11-05T10:29:25.775Z,101243.38
2022-11-05T10:34:32.325Z,101251.28
2022-11-05T10:39:35.477Z,101259.75
2022-11-05T10:44:43.543Z,101251.44
2022-11-05T10:49:56.470Z,101256.19
2022-11-05T10:55:02.449Z,101266.31
2022-11-05T11:00:27.084Z,101264.69
2022-11-05T11:05:31.239Z,101274.50
2022-11-05T11:10:42.792Z,101269.69
2022-11-05T11:15:46.241Z,101264.44
2022-11-05T11:20:48.511Z,101271.69
2022-11-05T11:25:52.317Z,101266.28
2022-11-05T11:31:04.493Z,101268.19
2022-11-05T11:36:09.477Z,101267.06
2022-11-05T11:41:25.259Z,101272.69
2022-11-05T11:46:32.741Z,101273.69
2022-11-05T11:51:36.476Z,101270.09
2022-11-05T11:56:45.905Z,101279.34
2022-11-05T12:02:16.776Z,101274.22
2022-11-05T12:07:32.837Z,101280.25
2022-11-05T12:12:42.829Z,101265.44
2022-11-05T12:17:52.066Z,101271.88
2022-11-05T12:23:13.607Z,101277.66
2022-11-05T12:28:30.626Z,101274.81
2022-11-05T12:33:49.361Z,101266.56
2022-11-05T12:39:09.538Z,101268.81
2022-11-05T12:44:27.399Z,101267.63
2022-11-05T12:49:57.389Z,101270.97
2022-11-05T12:55:06.281Z,101284.50
2022-11-05T13:00:17.151Z,101273.53
2022-11-05T13:05:29.082Z,101272.50
2022-11-05T13:10:35.797Z,101274.72
2022-11-05T13:15:45.926Z,101277.09
2022-11-05T13:20:53.552Z,101274.41
2022-11-05T13:26:02.884Z,101273.34
2022-11-05T13:31:11.141Z,101282.38
2022-11-05T13:36:17.292Z,101288.59
2022-11-05T13:41:31.259Z,101296.81
2022-11-05T13:46:50.039Z,101295.34
2022-11-05T13:51:57.264Z,101299.78
2022-11-05T13:57:12.779Z,101306.78
2022-11-05T14:02:20.464Z,101313.72
2022-11-05T14:07:31.499Z,101311.84
2022-11-05T14:12:37.555Z,101318.00
2022-11-05T14:17:56.690Z,101321.47
2022-11-05T14:28:39.914Z,101310.28
2022-11-05T14:33:56.305Z,101311.31
2022-11-05T14:39:16.276Z,101318.56
2022-11-05T14:44:20.101Z,101319.53
2022-11-05T14:49:25.509Z,101322.19
2022-11-05T14:54:36.768Z,101328.34
2022-11-05T15:00:01.295Z,101336.47
2022-11-05T15:05:37.520Z,101328.63
2022-11-05T15:10:40.344Z,101339.38
2022-11-05T15:15:47.031Z,101342.16
2022-11-05T15:20:54.555Z,101340.44
2022-11-05T15:26:06.004Z,101347.50
2022-11-05T15:31:24.924Z,101346.63
2022-11-05T15:36:28.800Z,101351.94
2022-11-05T15:41:32.150Z,101353.69
2022-11-05T15:46:35.626Z,101364.22
2022-11-05T15:51:37.528Z,101362.34
2022-11-05T15:56:49.281Z,101358.75
2022-11-05T16:01:55.217Z,101360.38
2022-11-05T16:07:00.818Z,101361.94
2022-11-05T16:12:14.447Z,101370.50
2022-11-05T16:17:21.949Z,101367.75
2022-11-05T16:22:25.006Z,101372.03
2022-11-05T16:27:27.077Z,101376.25
2022-11-05T16:32:31.673Z,101378.75
2022-11-05T16:37:37.884Z,101383.16
2022-11-05T16:42:40.879Z,101385.47
2022-11-05T16:47:45.148Z,101394.75
2022-11-05T16:52:47.353Z,101407.84
2022-11-05T16:57:55.301Z,101399.59
2022-11-05T17:02:58.725Z,101412.91
2022-11-05T17:08:00.360Z,101424.38
2022-11-05T17:13:02.243Z,101435.75
2022-11-05T17:18:05.990Z,101437.22
2022-11-05T17:23:09.388Z,101443.31
2022-11-05T17:28:12.981Z,101442.16
2022-11-05T17:33:17.194Z,101451.66
2022-11-05T17:38:21.047Z,101459.22
2022-11-05T17:43:22.690Z,101464.25
2022-11-05T17:48:25.968Z,101466.00
2022-11-05T17:53:36.539Z,101475.69
2022-11-05T17:58:42.408Z,101475.41
2022-11-05T18:03:46.091Z,101467.78
2022-11-05T18:08:48.660Z,101475.59
2022-11-05T18:13:50.680Z,101472.63
2022-11-05T18:18:54.168Z,101469.25
2022-11-05T18:23:56.451Z,101474.16
2022-11-05T18:29:00.970Z,101460.94
2022-11-05T18:34:04.577Z,101466.19
2022-11-05T18:39:07.302Z,101460.69
2022-11-05T18:44:10.700Z,101465.50
2022-11-05T18:49:13.971Z,101462.63
2022-11-05T18:54:16.085Z,101474.75
2022-11-05T19:05:00.684Z,101471.69
2022-11-05T19:10:09.062Z,101477.72
2022-11-05T19:15:11.649Z,101477.38
2022-11-05T19:20:14.709Z,101479.03
2022-11-05T19:25:16.467Z,101482.53
2022-11-05T19:30:18.254Z,101479.38
2022-11-05T19:35:21.433Z,101489.88
2022-11-05T19:40:23.284Z,101478.78
2022-11-05T19:45:53.730Z,101469.16
2022-11-05T19:50:48.543Z,101463.63
2022-11-05T19:55:50.264Z,101465.19
2022-11-05T20:00:55.378Z,101469.13
2022-11-05T20:06:03.135Z,101476.03
2022-11-05T20:11:05.795Z,101488.31
2022-11-05T20:16:17.741Z,101485.38
2022-11-05T20:21:20.925Z,101487.88
2022-11-05T20:26:23.614Z,101497.00
2022-11-05T20:31:26.902Z,101492.78
2022-11-05T20:36:30.039Z,101510.50
2022-11-05T20:41:32.020Z,101510.88
2022-11-05T20:46:34.016Z,101510.25
2022-11-05T20:51:37.889Z,101503.75
2022-11-05T20:56:39.610Z,101501.19
2022-11-05T21:01:41.520Z,101512.53
2022-11-05T21:06:45.481Z,101516.00
2022-11-05T21:11:49.783Z,101520.72
2022-11-05T21:16:51.927Z,101527.13
2022-11-05T21:21:55.528Z,101527.75
2022-11-05T21:26:57.284Z,101521.28
2022-11-05T21:31:59.443Z,101515.13
2022-11-05T21:37:02.518Z,101512.88
2022-11-05T21:42:04.865Z,101501.84
2022-11-05T21:47:07.136Z,101505.56
2022-11-05T21:52:11.987Z,101500.38
2022-11-05T21:57:16.007Z,101508.59
2022-11-05T22:02:20.563Z,101503.94
2022-11-05T22:07:26.582Z,101510.53
2022-11-05T22:12:29.161Z,101497.25
2022-11-05T22:17:31.701Z,101500.75
2022-11-05T22:22:35.342Z,101507.91
2022-11-05T22:27:37.632Z,101509.63
2022-11-05T22:32:39.845Z,101507.59
2022-11-05T22:37:43.277Z,101507.34
2022-11-05T22:42:45.621Z,101501.28
2022-11-05T22:47:47.742Z,101504.28
2022-11-05T22:52:51.219Z,101513.28
2022-11-05T22:57:53.263Z,101503.53
2022-11-05T23:02:55.457Z,101508.72
2022-11-05T23:07:58.534Z,101504.97
2022-11-05T23:13:00.267Z,101497.13
2022-11-05T23:18:02.563Z,101502.53
2022-11-05T23:23:09.800Z,101502.66
2022-11-05T23:28:12.664Z,101494.63
2022-11-05T23:33:15.066Z,101497.41
2022-11-05T23:38:18.269Z,101494.78
2022-11-05T23:43:20.488Z,101499.22
2022-11-05T23:48:26.005Z,101496.72
2022-11-05T23:53:31.762Z,101496.94
2022-11-05T23:58:34.451Z,101489.00
